Time;durP1;ratioP1;P1;durP2;ratioP2;P2;SDS_P1;SDS_P2;PMS_P1;PMS_P2;Temp;Humidity;BMP_temperature;BMP_pressure;BME280_temperature;BME280_humidity;BME280_pressure;Samples;Min_cycle;Max_cycle;Signal;HPM_P1;HPM_P2
2022/08/03 00:01:58;;;;;;;;;;;;;;;19.03;65.18;99202.10;1767718;80;20108;-70
2022/08/03 00:04:25;;;;;;;;;;;;;;;19.01;65.44;99204.18;1755839;80;20187;-69
2022/08/03 00:06:51;;;;;;;;;;;;;;;18.99;65.66;99205.77;1761041;80;20123;-70
2022/08/03 00:09:18;;;;;;;;;;;;;;;18.94;65.77;99205.64;1746733;80;20109;-69
2022/08/03 00:11:44;;;;;;;;;;;;;;;18.92;65.83;99206.92;1766397;80;21907;-69
2022/08/03 00:14:10;;;;;;;;;;;;;;;18.90;65.91;99206.34;1759284;80;20151;-71
2022/08/03 00:16:37;;;;;;;;;;;;;;;18.88;66.08;99201.69;1765185;80;20109;-69
2022/08/03 00:19:03;;;;;;;;;;;;;;;18.85;66.23;99202.97;1762247;80;20081;-70
2022/08/03 00:21:30;;;;;;;;;;;;;;;18.83;66.42;99198.86;1753906;80;20123;-70
2022/08/03 00:23:56;;;;;;;;;;;;;;;18.80;66.54;99208.23;1776845;80;21998;-69
2022/08/03 00:26:23;;;;;;;;;;;;;;;18.78;66.67;99200.91;1776122;80;20116;-69
2022/08/03 00:28:49;;;;;;;;;;;;;;;18.74;66.88;99210.52;1746080;80;20422;-69
2022/08/03 00:31:15;;;;;;;;;;;;;;;18.72;67.01;99212.59;1743774;80;20126;-70
2022/08/03 00:33:42;;;;;;;;;;;;;;;18.69;67.08;99213.59;1746761;80;20171;-69
2022/08/03 00:36:08;;;;;;;;;;;;;;;18.66;67.21;99214.88;1747748;80;21117;-69
2022/08/03 00:38:34;;;;;;;;;;;;;;;18.64;67.36;99214.80;1766437;80;20141;-70
2022/08/03 00:41:01;;;;;;;;;;;;;;;18.62;67.55;99219.58;1779908;80;20116;-69
2022/08/03 00:43:28;;;;;;;;;;;;;;;18.62;67.66;99218.23;1777563;80;20092;-70
2022/08/03 00:45:54;;;;;;;;;;;;;;;18.61;67.76;99217.95;1778338;80;20085;-69
2022/08/03 00:48:20;;;;;;;;;;;;;;;18.61;67.75;99216.08;1769371;80;21151;-69
2022/08/03 00:50:47;;;;;;;;;;;;;;;18.57;67.96;99222.96;1765030;80;20097;-69
2022/08/03 00:53:13;;;;;;;;;;;;;;;18.56;67.93;99217.30;1779653;80;20116;-69
2022/08/03 00:55:40;;;;;;;;;;;;;;;18.57;67.94;99222.96;1779244;80;20572;-69
2022/08/03 00:58:07;;;;;;;;;;;;;;;18.56;67.93;99224.03;1759739;80;20128;-69
2022/08/03 01:00:35;;;;;;;;;;;;;;;18.55;67.96;99224.23;1776211;80;21159;-69
2022/08/03 01:03:01;;;;;;;;;;;;;;;18.49;68.02;99224.10;1744945;80;20101;-70
2022/08/03 01:05:28;;;;;;;;;;;;;;;18.46;68.12;99219.12;1762301;80;20120;-69
2022/08/03 01:08:14;;;;;;;;;;;;;;;18.44;68.34;99217.20;1779610;80;20477;-69
2022/08/03 01:11:19;;;;;;;;;;;;;;;18.38;68.59;99222.13;1762573;80;20109;-69
2022/08/03 01:14:06;;;;;;;;;;;;;;;18.35;68.88;99229.86;1760077;80;21261;-69
2022/08/03 01:16:36;;;;;;;;;;;;;;;18.33;69.09;99226.03;1773601;80;20104;-70
2022/08/03 01:19:21;;;;;;;;;;;;;;;18.29;69.12;99230.23;1756578;80;20094;-70
2022/08/03 01:21:57;;;;;;;;;;;;;;;18.26;69.28;99233.38;1748262;80;20085;-69
2022/08/03 01:24:30;;;;;;;;;;;;;;;18.20;69.56;99224.84;1771438;80;20140;-71
2022/08/03 01:27:06;;;;;;;;;;;;;;;18.20;69.86;99228.88;1771902;80;21135;-70
2022/08/03 01:29:46;;;;;;;;;;;;;;;18.21;69.95;99231.88;1759596;80;20092;-70
2022/08/03 01:32:15;;;;;;;;;;;;;;;18.21;70.03;99237.27;1751585;80;20111;-70
2022/08/03 01:34:48;;;;;;;;;;;;;;;18.21;70.08;99235.92;1760399;80;20068;-70
2022/08/03 01:37:17;;;;;;;;;;;;;;;18.17;70.10;99234.70;1773158;80;20117;-70
2022/08/03 01:39:44;;;;;;;;;;;;;;;18.14;70.18;99239.22;1759296;80;22003;-70
2022/08/03 01:42:10;;;;;;;;;;;;;;;18.11;70.30;99230.25;1752230;80;20460;-69
2022/08/03 01:44:39;;;;;;;;;;;;;;;18.07;70.44;99234.41;1746758;80;20118;-69
2022/08/03 01:47:05;;;;;;;;;;;;;;;18.06;70.59;99227.92;1754206;80;20175;-69
2022/08/03 01:49:34;;;;;;;;;;;;;;;18.04;70.68;99228.12;1756214;80;20081;-69
2022/08/03 01:52:01;;;;;;;;;;;;;;;18.02;70.80;99232.92;1780942;80;21161;-70
2022/08/03 01:54:27;;;;;;;;;;;;;;;18.01;70.89;99231.81;1776926;80;20127;-70
2022/08/03 01:56:53;;;;;;;;;;;;;;;17.98;70.97;99231.73;1748942;80;20385;-70
2022/08/03 01:59:20;;;;;;;;;;;;;;;17.97;71.02;99234.62;1772899;80;20121;-69
2022/08/03 02:01:46;;;;;;;;;;;;;;;17.93;71.08;99232.93;1746553;80;20409;-69
2022/08/03 02:04:14;;;;;;;;;;;;;;;17.89;71.05;99233.89;1745039;80;21172;-70
2022/08/03 02:06:40;;;;;;;;;;;;;;;17.89;71.00;99232.55;1753641;80;20146;-69
2022/08/03 02:09:06;;;;;;;;;;;;;;;17.85;70.84;99230.02;1754981;81;20191;-69
2022/08/03 02:11:33;;;;;;;;;;;;;;;17.80;70.85;99235.75;1775947;80;20402;-69
2022/08/03 02:14:00;;;;;;;;;;;;;;;17.74;71.01;99234.77;1780247;80;20081;-69
2022/08/03 02:16:26;;;;;;;;;;;;;;;17.68;71.35;99236.99;1775089;80;21166;-69
2022/08/03 02:18:52;;;;;;;;;;;;;;;17.66;71.57;99236.41;1747951;80;20099;-69
2022/08/03 02:21:19;;;;;;;;;;;;;;;17.65;71.75;99233.95;1745569;80;20133;-69
2022/08/03 02:23:45;;;;;;;;;;;;;;;17.65;71.92;99233.40;1751090;80;20124;-69
2022/08/03 02:26:14;;;;;;;;;;;;;;;17.66;72.13;99231.54;1780152;80;20093;-69
2022/08/03 02:28:42;;;;;;;;;;;;;;;17.64;72.21;99227.73;1753980;80;21161;-69
2022/08/03 02:31:14;;;;;;;;;;;;;;;17.63;72.41;99234.15;1777493;80;20112;-70
2022/08/03 02:33:43;;;;;;;;;;;;;;;17.62;72.64;99226.31;1748253;80;20123;-69
2022/08/03 02:36:10;;;;;;;;;;;;;;;17.63;72.77;99234.66;1779637;80;20438;-69
2022/08/03 02:38:39;;;;;;;;;;;;;;;17.63;72.95;99234.66;1746637;80;21062;-70
2022/08/03 02:41:07;;;;;;;;;;;;;;;17.62;73.37;99235.21;1755232;80;21149;-70
2022/08/03 02:43:34;;;;;;;;;;;;;;;17.65;73.45;99242.02;1759499;80;20086;-69
2022/08/03 02:46:00;;;;;;;;;;;;;;;17.64;73.56;99233.63;1757452;80;20075;-69
2022/08/03 02:48:28;;;;;;;;;;;;;;;17.63;73.63;99243.56;1749161;80;20127;-69
2022/08/03 02:50:56;;;;;;;;;;;;;;;17.62;73.88;99241.11;1747030;81;20097;-69
2022/08/03 02:53:23;;;;;;;;;;;;;;;17.62;74.09;99245.14;1760112;80;21103;-69
2022/08/03 02:55:49;;;;;;;;;;;;;;;17.63;74.16;99240.05;1781331;80;20076;-69
2022/08/03 02:58:17;;;;;;;;;;;;;;;17.67;74.37;99244.78;1756872;80;20461;-70
2022/08/03 03:00:44;;;;;;;;;;;;;;;17.72;74.28;99234.70;1743174;81;20108;-69
2022/08/03 03:03:10;;;;;;;;;;;;;;;17.76;74.30;99238.06;1754828;80;20161;-68
2022/08/03 03:05:37;;;;;;;;;;;;;;;17.77;74.27;99241.06;1780790;80;21988;-69
2022/08/03 03:08:04;;;;;;;;;;;;;;;17.79;74.33;99244.34;1778376;80;20085;-69
2022/08/03 03:10:30;;;;;;;;;;;;;;;17.82;74.31;99245.25;1765555;80;20132;-69
2022/08/03 03:12:57;;;;;;;;;;;;;;;17.84;74.20;99239.63;1766199;80;20435;-69
2022/08/03 03:15:27;;;;;;;;;;;;;;;17.84;74.24;99241.81;1772174;80;20083;-69
2022/08/03 03:17:53;;;;;;;;;;;;;;;17.86;74.29;99239.71;1758153;80;21118;-69
2022/08/03 03:20:20;;;;;;;;;;;;;;;17.87;74.21;99240.02;1750795;80;20143;-69
2022/08/03 03:22:48;;;;;;;;;;;;;;;17.88;74.14;99244.34;1759495;80;20094;-69
2022/08/03 03:25:14;;;;;;;;;;;;;;;17.93;74.12;99245.04;1775232;80;20072;-69
2022/08/03 03:27:40;;;;;;;;;;;;;;;18.01;74.08;99250.13;1755991;80;20468;-70
2022/08/03 03:30:08;;;;;;;;;;;;;;;18.12;74.06;99250.71;1755170;80;21150;-69
2022/08/03 03:32:36;;;;;;;;;;;;;;;18.30;73.73;99246.67;1754137;80;20131;-69
2022/08/03 03:35:03;;;;;;;;;;;;;;;18.44;73.24;99252.72;1754804;80;20123;-69
2022/08/03 03:37:29;;;;;;;;;;;;;;;18.60;72.77;99252.14;1704041;80;20153;-69
2022/08/03 03:39:56;;;;;;;;;;;;;;;18.80;72.31;99251.86;1752047;80;20464;-69
2022/08/03 03:42:22;;;;;;;;;;;;;;;19.05;71.84;99245.30;1779325;80;21154;-69
2022/08/03 03:44:48;;;;;;;;;;;;;;;19.36;70.95;99250.92;1785852;80;20150;-69
2022/08/03 03:47:15;;;;;;;;;;;;;;;19.71;69.96;99250.97;1764214;80;20127;-70
2022/08/03 03:49:41;;;;;;;;;;;;;;;19.96;68.87;99256.97;1758545;80;20506;-69
2022/08/03 03:52:08;;;;;;;;;;;;;;;20.28;67.71;99256.88;1762795;80;20116;-69
2022/08/03 03:54:41;;;;;;;;;;;;;;;20.59;66.48;99264.28;1786682;80;21159;-69
2022/08/03 03:57:09;;;;;;;;;;;;;;;20.89;65.36;99259.45;1768074;80;20125;-70
2022/08/03 03:59:39;;;;;;;;;;;;;;;21.22;64.33;99257.39;1762506;80;20115;-70
2022/08/03 04:02:06;;;;;;;;;;;;;;;21.62;63.04;99268.87;1785806;80;20171;-69
2022/08/03 04:12:50;;;;;;;;;;;;;;;23.52;57.07;99257.16;1762959;80;20167;-69
2022/08/03 04:15:18;;;;;;;;;;;;;;;23.90;55.61;99261.83;1754776;81;20130;-68
2022/08/03 04:17:44;;;;;;;;;;;;;;;24.22;54.48;99257.67;1768478;80;20088;-69
2022/08/03 04:20:11;;;;;;;;;;;;;;;24.51;53.47;99256.19;1763949;80;21159;-69
2022/08/03 04:22:38;;;;;;;;;;;;;;;24.69;52.54;99252.73;1768114;80;20140;-70
2022/08/03 04:25:08;;;;;;;;;;;;;;;24.79;51.84;99252.79;1760935;80;20107;-70
2022/08/03 04:27:37;;;;;;;;;;;;;;;25.00;51.51;99258.56;1756136;80;20122;-70
2022/08/03 04:30:05;;;;;;;;;;;;;;;25.32;50.78;99255.05;1765016;80;20106;-69
2022/08/03 04:32:31;;;;;;;;;;;;;;;25.68;50.01;99256.71;1763373;80;21166;-71
2022/08/03 04:34:58;;;;;;;;;;;;;;;26.09;48.98;99260.22;1754779;80;20090;-70
2022/08/03 04:37:47;;;;;;;;;;;;;;;26.52;47.87;99261.99;1755093;80;20075;-71
2022/08/03 04:40:17;;;;;;;;;;;;;;;26.91;47.02;99262.38;1772726;80;20112;-71
2022/08/03 04:42:43;;;;;;;;;;;;;;;27.48;45.85;99256.28;1768986;80;20095;-70
2022/08/03 04:45:12;;;;;;;;;;;;;;;27.95;44.78;99258.89;1754831;80;21945;-70
2022/08/03 04:47:39;;;;;;;;;;;;;;;28.44;43.62;99258.10;1762589;80;20320;-71
2022/08/03 04:50:05;;;;;;;;;;;;;;;28.81;42.56;99258.73;1769086;80;20112;-70
2022/08/03 04:52:33;;;;;;;;;;;;;;;29.16;41.73;99260.16;1786409;80;20096;-70
2022/08/03 04:54:59;;;;;;;;;;;;;;;29.46;40.91;99269.87;1744315;80;20096;-70
2022/08/03 04:57:25;;;;;;;;;;;;;;;29.76;40.30;99272.10;1761972;80;21137;-71
2022/08/03 04:59:53;;;;;;;;;;;;;;;30.05;39.49;99269.97;1755409;80;20428;-71
2022/08/03 05:02:20;;;;;;;;;;;;;;;30.23;38.91;99271.00;1752632;80;20463;-69
2022/08/03 05:04:46;;;;;;;;;;;;;;;30.45;38.61;99278.80;1754839;80;20138;-70
2022/08/03 05:07:12;;;;;;;;;;;;;;;30.82;37.88;99278.31;1772580;80;20450;-70
2022/08/03 05:09:39;;;;;;;;;;;;;;;31.16;37.31;99280.88;1778027;80;21156;-71
2022/08/03 05:12:05;;;;;;;;;;;;;;;31.61;36.84;99279.57;1751908;80;20216;-69
2022/08/03 05:14:33;;;;;;;;;;;;;;;32.11;35.81;99277.48;1769657;80;20116;-71
2022/08/03 05:16:59;;;;;;;;;;;;;;;32.41;34.95;99273.88;1771669;80;20112;-69
2022/08/03 05:19:25;;;;;;;;;;;;;;;32.51;34.62;99276.37;1757200;80;20495;-70
2022/08/03 05:21:52;;;;;;;;;;;;;;;32.72;34.22;99276.63;1771932;80;21089;-70
2022/08/03 05:24:18;;;;;;;;;;;;;;;33.07;33.96;99274.75;1762966;80;20169;-71
2022/08/03 05:26:45;;;;;;;;;;;;;;;33.48;33.18;99270.94;1747821;80;20154;-69
2022/08/03 05:29:11;;;;;;;;;;;;;;;33.78;32.65;99276.06;1760918;80;20116;-71
2022/08/03 05:31:37;;;;;;;;;;;;;;;33.98;32.20;99269.84;1758836;80;20531;-69
2022/08/03 05:34:03;;;;;;;;;;;;;;;34.19;31.80;99267.20;1774959;80;21155;-70
2022/08/03 05:36:30;;;;;;;;;;;;;;;34.46;31.38;99270.91;1780212;80;20112;-69
2022/08/03 05:38:56;;;;;;;;;;;;;;;34.79;30.94;99274.66;1756493;80;20140;-69
2022/08/03 05:41:23;;;;;;;;;;;;;;;35.07;30.26;99271.64;1758832;80;20500;-70
2022/08/03 05:43:52;;;;;;;;;;;;;;;35.13;29.91;99268.92;1754827;80;20415;-69
2022/08/03 05:46:19;;;;;;;;;;;;;;;35.23;29.87;99267.13;1751784;80;21143;-67
2022/08/03 05:48:45;;;;;;;;;;;;;;;35.53;29.43;99273.42;1766231;80;20120;-70
2022/08/03 05:51:12;;;;;;;;;;;;;;;35.79;28.86;99266.25;1762325;80;20457;-69
2022/08/03 05:53:39;;;;;;;;;;;;;;;36.13;28.52;99270.05;1743647;81;20107;-69
2022/08/03 05:56:06;;;;;;;;;;;;;;;36.54;27.83;99264.91;1746335;80;20130;-73
2022/08/03 05:58:32;;;;;;;;;;;;;;;36.81;27.12;99266.17;1759581;80;21194;-70
2022/08/03 06:00:59;;;;;;;;;;;;;;;37.05;26.87;99271.11;1752910;80;20656;-74
2022/08/03 06:03:25;;;;;;;;;;;;;;;37.44;25.90;99269.52;1765557;80;20117;-70
2022/08/03 06:05:55;;;;;;;;;;;;;;;37.43;25.80;99276.82;1746568;80;20091;-72
2022/08/03 06:08:22;;;;;;;;;;;;;;;37.73;25.67;99278.67;1739664;80;20163;-68
2022/08/03 06:10:49;;;;;;;;;;;;;;;38.23;25.16;99276.06;1771284;80;21212;-68
2022/08/03 06:13:15;;;;;;;;;;;;;;;38.73;24.41;99277.55;1751805;80;20169;-68
2022/08/03 06:15:42;;;;;;;;;;;;;;;39.17;23.69;99279.56;1770768;80;20138;-69
2022/08/03 06:18:08;;;;;;;;;;;;;;;39.30;22.91;99283.05;1771971;80;21042;-71
2022/08/03 06:20:34;;;;;;;;;;;;;;;39.18;23.10;99279.83;1760718;80;20114;-72
2022/08/03 06:23:00;;;;;;;;;;;;;;;39.27;22.97;99273.45;1751963;81;21238;-69
2022/08/03 06:25:28;;;;;;;;;;;;;;;39.40;22.80;99273.53;1773720;80;20189;-71
2022/08/03 06:27:54;;;;;;;;;;;;;;;39.29;22.64;99278.67;1760252;80;20147;-69
2022/08/03 06:30:20;;;;;;;;;;;;;;;39.39;22.20;99276.69;1756533;80;20109;-70
2022/08/03 06:32:47;;;;;;;;;;;;;;;39.50;22.18;99272.16;1763714;80;20124;-69
2022/08/03 06:35:13;;;;;;;;;;;;;;;39.54;22.28;99272.21;1778680;80;21156;-70
2022/08/03 06:37:44;;;;;;;;;;;;;;;39.94;22.08;99281.00;1774941;80;20145;-70
2022/08/03 06:40:12;;;;;;;;;;;;;;;40.30;21.50;99273.52;1770315;80;20077;-71
2022/08/03 06:42:39;;;;;;;;;;;;;;;40.48;21.17;99280.80;1779082;80;20136;-71
2022/08/03 06:45:07;;;;;;;;;;;;;;;40.82;20.68;99273.36;1769552;80;20175;-70
2022/08/03 06:47:35;;;;;;;;;;;;;;;41.11;20.47;99281.80;1755610;80;21155;-71
2022/08/03 06:50:04;;;;;;;;;;;;;;;41.47;19.97;99283.09;1753946;80;20099;-71
2022/08/03 06:52:31;;;;;;;;;;;;;;;41.49;19.51;99285.48;1753484;80;20138;-74
2022/08/03 06:54:57;;;;;;;;;;;;;;;41.26;19.43;99282.20;1716083;82;20090;-72
2022/08/03 06:57:24;;;;;;;;;;;;;;;41.24;19.38;99281.78;1729632;82;20507;-71
2022/08/03 06:59:50;;;;;;;;;;;;;;;41.26;19.66;99282.20;1728142;82;21157;-71
2022/08/03 07:02:18;;;;;;;;;;;;;;;41.57;19.38;99287.19;1690838;83;20135;-71
2022/08/03 07:04:44;;;;;;;;;;;;;;;41.87;19.13;99275.41;1714186;82;20410;-71
2022/08/03 07:07:12;;;;;;;;;;;;;;;42.00;18.79;99278.14;1717100;82;20846;-72
2022/08/03 07:09:39;;;;;;;;;;;;;;;42.01;18.17;99281.70;1712145;83;20162;-71
2022/08/03 07:12:05;;;;;;;;;;;;;;;41.58;18.32;99286.83;1711135;82;21137;-72
2022/08/03 07:14:32;;;;;;;;;;;;;;;41.33;18.77;99285.69;1701476;83;20094;-70
2022/08/03 07:16:58;;;;;;;;;;;;;;;41.44;18.47;99282.45;1709552;83;20272;-71
2022/08/03 07:19:24;;;;;;;;;;;;;;;41.34;18.50;99280.92;1698029;82;20245;-72
2022/08/03 07:21:51;;;;;;;;;;;;;;;41.48;18.58;99279.13;1707719;83;20143;-71
2022/08/03 07:24:17;;;;;;;;;;;;;;;41.81;18.38;99274.95;1712068;83;21138;-71
2022/08/03 07:26:43;;;;;;;;;;;;;;;42.02;17.84;99276.34;1703844;83;20420;-70
2022/08/03 07:29:10;;;;;;;;;;;;;;;42.05;17.90;99277.78;1702311;83;20157;-70
2022/08/03 07:31:37;;;;;;;;;;;;;;;42.17;17.68;99283.11;1710665;83;20132;-70
2022/08/03 07:34:03;;;;;;;;;;;;;;;42.36;17.65;99282.09;1697145;83;20097;-70
2022/08/03 07:36:31;;;;;;;;;;;;;;;42.57;17.34;99284.28;1710607;83;21113;-68
2022/08/03 07:38:57;;;;;;;;;;;;;;;42.44;17.65;99287.95;1713690;83;20424;-69
2022/08/03 07:41:23;;;;;;;;;;;;;;;42.15;17.52;99289.69;1684289;83;20172;-70
2022/08/03 07:43:50;;;;;;;;;;;;;;;41.65;17.91;99284.69;1689081;83;20077;-72
2022/08/03 07:46:16;;;;;;;;;;;;;;;41.65;18.15;99282.70;1690393;83;20481;-72
2022/08/03 07:48:42;;;;;;;;;;;;;;;41.80;17.76;99286.48;1682980;85;21162;-71
2022/08/03 07:51:08;;;;;;;;;;;;;;;41.93;18.00;99284.25;1672971;85;20116;-72
2022/08/03 07:53:35;;;;;;;;;;;;;;;42.15;17.69;99283.29;1689991;85;20155;-71
2022/08/03 07:56:01;;;;;;;;;;;;;;;42.20;17.29;99290.73;1683550;85;20093;-70
2022/08/03 07:58:27;;;;;;;;;;;;;;;41.28;18.03;99288.78;1663361;85;20141;-70
2022/08/03 08:00:53;;;;;;;;;;;;;;;40.95;18.62;99293.72;1651990;86;22035;-70
2022/08/03 08:03:20;;;;;;;;;;;;;;;41.36;18.49;99293.31;1684205;84;20085;-70
2022/08/03 08:05:47;;;;;;;;;;;;;;;41.89;17.98;99280.59;1685108;84;20157;-74
2022/08/03 08:08:14;;;;;;;;;;;;;;;42.30;17.56;99289.21;1690505;84;20103;-75
2022/08/03 08:10:41;;;;;;;;;;;;;;;42.36;17.36;99292.67;1698548;84;20163;-73
2022/08/03 08:13:07;;;;;;;;;;;;;;;41.57;17.94;99294.98;1687501;84;21152;-73
2022/08/03 08:15:34;;;;;;;;;;;;;;;40.84;18.63;99303.06;1681216;84;20101;-75
2022/08/03 08:18:01;;;;;;;;;;;;;;;40.20;19.16;99295.62;1682168;84;20118;-71
2022/08/03 08:20:29;;;;;;;;;;;;;;;40.11;19.24;99295.04;1670246;84;20472;-72
2022/08/03 08:22:56;;;;;;;;;;;;;;;40.16;19.49;99294.15;1694318;84;20586;-73
2022/08/03 08:25:24;;;;;;;;;;;;;;;40.69;19.14;99290.91;1698527;83;21254;-74
2022/08/03 08:27:51;;;;;;;;;;;;;;;41.23;18.85;99295.51;1698554;83;20111;-74
2022/08/03 08:30:19;;;;;;;;;;;;;;;41.89;18.14;99290.38;1698552;83;20091;-75
2022/08/03 08:32:46;;;;;;;;;;;;;;;42.32;17.82;99296.61;1698909;83;20147;-72
2022/08/03 08:35:13;;;;;;;;;;;;;;;42.14;17.76;99297.04;1698785;84;20087;-74
2022/08/03 08:37:40;;;;;;;;;;;;;;;41.85;18.18;99300.09;1698521;83;21153;-74
2022/08/03 08:40:07;;;;;;;;;;;;;;;41.11;18.64;99306.10;1698476;83;20130;-73
2022/08/03 08:42:33;;;;;;;;;;;;;;;40.72;19.31;99299.11;1698536;83;20425;-74
2022/08/03 08:45:00;;;;;;;;;;;;;;;41.15;18.68;99307.75;1698664;84;20087;-73
2022/08/03 08:47:29;;;;;;;;;;;;;;;40.52;19.16;99308.13;1698496;83;20162;-73
2022/08/03 08:49:56;;;;;;;;;;;;;;;39.43;20.16;99312.34;1698651;83;21142;-73
2022/08/03 08:52:27;;;;;;;;;;;;;;;38.80;20.90;99311.09;1698545;83;20087;-74
2022/08/03 08:54:56;;;;;;;;;;;;;;;38.36;21.78;99310.14;1698590;83;20099;-76
2022/08/03 08:57:25;;;;;;;;;;;;;;;38.06;22.03;99313.91;1698296;83;20151;-73
2022/08/03 08:59:54;;;;;;;;;;;;;;;38.46;21.76;99320.14;1698632;83;20095;-73
2022/08/03 09:02:19;;;;;;;;;;;;;;;39.16;21.18;99314.71;1698719;84;20800;-74
2022/08/03 09:04:47;;;;;;;;;;;;;;;39.66;20.73;99307.69;1698515;83;20191;-73
2022/08/03 09:07:15;;;;;;;;;;;;;;;39.65;20.13;99317.22;1698662;83;32619;-74
2022/08/03 09:09:42;;;;;;;;;;;;;;;38.66;21.32;99315.48;1698578;83;20190;-72
2022/08/03 09:12:08;;;;;;;;;;;;;;;37.32;22.56;99327.79;1699406;83;20439;-75
2022/08/03 09:14:35;;;;;;;;;;;;;;;36.65;23.58;99322.87;1681860;83;21554;-75
2022/08/03 09:17:02;;;;;;;;;;;;;;;37.49;23.25;99321.20;1708391;83;20457;-74
2022/08/03 09:19:31;;;;;;;;;;;;;;;38.40;22.52;99318.00;1668410;86;20100;-73
2022/08/03 09:22:15;;;;;;;;;;;;;;;38.77;21.62;99321.55;1686016;85;20120;-73
2022/08/03 09:24:58;;;;;;;;;;;;;;;38.44;21.82;99316.11;1716393;83;20545;-75
2022/08/03 09:27:24;;;;;;;;;;;;;;;37.50;22.32;99324.18;1716661;83;21129;-73
2022/08/03 09:29:52;;;;;;;;;;;;;;;36.33;23.73;99324.54;1717427;83;20114;-75
2022/08/03 09:32:22;;;;;;;;;;;;;;;35.84;24.63;99326.91;1717275;83;20086;-73
2022/08/03 09:34:49;;;;;;;;;;;;;;;35.62;25.08;99325.88;1716263;83;20117;-74
2022/08/03 09:37:16;;;;;;;;;;;;;;;35.03;25.64;99330.67;1716200;83;20444;-73
2022/08/03 09:39:44;;;;;;;;;;;;;;;34.33;26.45;99323.02;1716301;83;21407;-72
2022/08/03 09:42:13;;;;;;;;;;;;;;;33.66;27.34;99326.95;1716248;83;20096;-73
2022/08/03 09:44:45;;;;;;;;;;;;;;;33.10;27.91;99318.20;1716245;83;20122;-74
2022/08/03 09:47:16;;;;;;;;;;;;;;;32.57;28.84;99323.30;1714734;83;20217;-73
2022/08/03 09:49:44;;;;;;;;;;;;;;;32.26;29.68;99323.29;1671801;85;20170;-72
2022/08/03 09:52:14;;;;;;;;;;;;;;;31.81;30.21;99327.77;1685657;83;21251;-73
2022/08/03 09:54:40;;;;;;;;;;;;;;;31.57;30.84;99329.45;1716840;83;20412;-73
2022/08/03 09:57:07;;;;;;;;;;;;;;;31.51;31.42;99328.75;1716541;83;20190;-72
2022/08/03 09:59:33;;;;;;;;;;;;;;;31.41;31.42;99326.21;1716414;83;20135;-73
2022/08/03 10:01:59;;;;;;;;;;;;;;;31.24;31.77;99323.29;1713712;83;20431;-74
2022/08/03 10:04:26;;;;;;;;;;;;;;;31.10;32.16;99323.90;1686600;85;21180;-73
2022/08/03 10:07:08;;;;;;;;;;;;;;;30.99;32.39;99322.48;1716254;83;20093;-73
2022/08/03 10:09:38;;;;;;;;;;;;;;;31.01;32.60;99322.43;1690989;85;20092;-73
2022/08/03 10:12:09;;;;;;;;;;;;;;;31.01;32.70;99316.12;1650234;83;20403;-73
2022/08/03 10:14:38;;;;;;;;;;;;;;;30.87;33.24;99319.43;1686528;83;20129;-75
2022/08/03 10:17:04;;;;;;;;;;;;;;;30.74;33.54;99327.11;1739467;82;21320;-75
2022/08/03 10:19:31;;;;;;;;;;;;;;;30.71;33.33;99322.23;1716476;83;20121;-74
2022/08/03 10:22:02;;;;;;;;;;;;;;;30.69;33.35;99322.52;1718203;82;20106;-72
2022/08/03 10:24:29;;;;;;;;;;;;;;;30.77;33.35;99325.92;1705019;84;20542;-74
2022/08/03 10:27:02;;;;;;;;;;;;;;;30.86;33.48;99324.10;1732261;83;20109;-74
2022/08/03 10:29:28;;;;;;;;;;;;;;;30.99;33.21;99323.30;1711011;84;21768;-75
2022/08/03 10:31:57;;;;;;;;;;;;;;;31.16;33.25;99315.77;1710964;82;20113;-73
2022/08/03 10:34:25;;;;;;;;;;;;;;;31.31;32.73;99319.58;1681141;84;20124;-74
2022/08/03 10:36:54;;;;;;;;;;;;;;;31.39;32.58;99320.19;1719386;83;20112;-72
2022/08/03 10:39:21;;;;;;;;;;;;;;;31.46;32.55;99322.00;1677454;84;20138;-71
2022/08/03 10:41:47;;;;;;;;;;;;;;;31.43;32.43;99319.83;1691797;82;21141;-73
2022/08/03 10:44:17;;;;;;;;;;;;;;;31.38;32.32;99324.08;1668676;83;20106;-73
2022/08/03 10:46:44;;;;;;;;;;;;;;;31.42;32.50;99325.63;1698863;84;20236;-74
2022/08/03 10:49:16;;;;;;;;;;;;;;;31.33;32.40;99325.57;1708552;83;20089;-73
2022/08/03 10:51:43;;;;;;;;;;;;;;;31.36;32.57;99326.89;1709704;84;20109;-73
2022/08/03 10:57:50;;;;;;;;;;;;;;;31.48;32.58;99325.24;1677183;84;20100;-73
2022/08/03 11:00:18;;;;;;;;;;;;;;;31.29;32.81;99318.27;1692819;84;20094;-74
2022/08/03 11:03:02;;;;;;;;;;;;;;;31.16;32.88;99321.27;1687011;84;20108;-72
2022/08/03 11:05:30;;;;;;;;;;;;;;;31.03;33.00;99317.98;1708357;83;20086;-73
2022/08/03 11:08:20;;;;;;;;;;;;;;;30.94;33.18;99321.23;1728155;83;21146;-74
2022/08/03 11:10:47;;;;;;;;;;;;;;;30.87;33.08;99316.69;1728137;83;20500;-72
2022/08/03 11:13:18;;;;;;;;;;;;;;;30.87;33.51;99313.94;1700841;82;20182;-72
2022/08/03 11:15:46;;;;;;;;;;;;;;;30.75;33.71;99312.25;1665733;85;20107;-73
2022/08/03 11:18:12;;;;;;;;;;;;;;;30.62;34.24;99313.89;1682288;83;20171;-73
2022/08/03 11:20:47;;;;;;;;;;;;;;;30.51;34.29;99311.08;1666924;85;21248;-74
2022/08/03 11:23:14;;;;;;;;;;;;;;;30.36;34.51;99312.20;1676551;85;20109;-73
2022/08/03 11:26:13;;;;;;;;;;;;;;;30.15;34.94;99309.55;1700281;84;20087;-72
2022/08/03 11:28:41;;;;;;;;;;;;;;;30.01;35.11;99304.58;1687063;84;20405;-73
2022/08/03 11:31:29;;;;;;;;;;;;;;;29.90;35.27;99300.41;1685962;84;20118;-73
2022/08/03 11:34:11;;;;;;;;;;;;;;;29.74;35.45;99297.08;1701091;84;21179;-72
2022/08/03 11:37:15;;;;;;;;;;;;;;;29.64;35.78;99289.59;1703909;84;20107;-74
2022/08/03 11:39:45;;;;;;;;;;;;;;;29.68;36.24;99296.08;1692935;84;20391;-72
2022/08/03 11:42:25;;;;;;;;;;;;;;;29.70;36.44;99297.95;1696207;84;20143;-73
2022/08/03 11:44:53;;;;;;;;;;;;;;;29.75;36.33;99295.95;1704196;83;20141;-75
2022/08/03 11:47:22;;;;;;;;;;;;;;;29.87;36.12;99292.23;1702729;83;21152;-72
2022/08/03 11:49:50;;;;;;;;;;;;;;;29.95;35.89;99291.55;1642132;85;20082;-73
2022/08/03 11:52:16;;;;;;;;;;;;;;;30.12;36.05;99284.09;1701429;83;20157;-75
2022/08/03 11:54:43;;;;;;;;;;;;;;;30.25;35.61;99284.67;1677537;83;20239;-74
2022/08/03 11:57:09;;;;;;;;;;;;;;;30.24;35.48;99287.17;1681460;85;20145;-73
2022/08/03 11:59:36;;;;;;;;;;;;;;;30.18;35.55;99291.67;1679630;83;21030;-73
2022/08/03 12:02:10;;;;;;;;;;;;;;;30.11;35.64;99289.89;1693310;83;20423;-75
2022/08/03 12:04:52;;;;;;;;;;;;;;;30.05;35.58;99284.23;1690854;84;20126;-74
2022/08/03 12:07:18;;;;;;;;;;;;;;;30.00;35.73;99280.21;1718599;83;20505;-73
2022/08/03 12:10:08;;;;;;;;;;;;;;;30.00;36.02;99280.21;1719157;83;20125;-74
2022/08/03 12:12:35;;;;;;;;;;;;;;;30.01;36.01;99285.97;1719183;83;21772;-72
2022/08/03 12:15:02;;;;;;;;;;;;;;;30.11;36.04;99281.11;1718975;82;20117;-75
2022/08/03 12:17:36;;;;;;;;;;;;;;;30.19;35.77;99278.22;1703169;83;20138;-72
2022/08/03 12:20:04;;;;;;;;;;;;;;;30.26;35.40;99273.95;1692351;84;20178;-74
2022/08/03 12:22:37;;;;;;;;;;;;;;;30.27;35.30;99272.82;1670681;84;20087;-73
2022/08/03 12:25:04;;;;;;;;;;;;;;;30.27;35.17;99272.03;1681311;83;21092;-73
2022/08/03 12:27:31;;;;;;;;;;;;;;;30.27;35.30;99271.45;1689641;83;20131;-73
2022/08/03 12:29:58;;;;;;;;;;;;;;;30.31;35.47;99270.30;1689014;84;20472;-73
2022/08/03 12:32:25;;;;;;;;;;;;;;;30.39;35.42;99271.81;1688865;84;20093;-73
2022/08/03 12:34:51;;;;;;;;;;;;;;;30.39;35.02;99269.63;1689009;85;20096;-75
2022/08/03 12:37:19;;;;;;;;;;;;;;;30.33;35.09;99262.56;1681960;85;20973;-72
2022/08/03 12:39:51;;;;;;;;;;;;;;;30.28;35.34;99259.92;1663053;85;20110;-74
2022/08/03 12:42:17;;;;;;;;;;;;;;;30.25;35.26;99258.60;1688563;83;20136;-75
2022/08/03 12:44:44;;;;;;;;;;;;;;;30.18;35.11;99261.50;1689659;84;20086;-73
2022/08/03 12:47:11;;;;;;;;;;;;;;;30.12;35.17;99259.41;1670422;85;20125;-71
2022/08/03 12:49:45;;;;;;;;;;;;;;;30.08;35.68;99250.72;1668993;85;21581;-75
2022/08/03 12:52:11;;;;;;;;;;;;;;;29.97;36.03;99252.84;1688588;84;20412;-72
2022/08/03 12:54:38;;;;;;;;;;;;;;;29.92;36.26;99253.75;1669705;85;20109;-73
2022/08/03 12:57:05;;;;;;;;;;;;;;;29.89;36.60;99251.61;1674679;85;20096;-73
2022/08/03 12:59:36;;;;;;;;;;;;;;;29.82;36.07;99251.20;1683349;80;20105;-74
2022/08/03 13:02:03;;;;;;;;;;;;;;;29.73;36.00;99254.33;1677724;82;21099;-74
2022/08/03 13:04:34;;;;;;;;;;;;;;;29.74;35.97;99251.86;1697200;79;20101;-75
2022/08/03 13:07:05;;;;;;;;;;;;;;;29.77;36.07;99243.59;1672840;79;20201;-74